Time;durP1;ratioP1;P1;durP2;ratioP2;P2;SDS_P1;SDS_P2;PMS_P1;PMS_P2;Temp;Humidity;BMP_temperature;BMP_pressure;BME280_temperature;BME280_humidity;BME280_pressure;Samples;Min_cycle;Max_cycle;Signal;HPM_P1;HPM_P2
2022/09/03 00:00:00;;;;;;;0.87;0.80;;;;;;;16.31;46.29;98662.34;5096557;28;41437;-78
2022/09/03 00:02:35;;;;;;;0.63;0.63;;;;;;;16.30;46.42;98655.28;5096400;28;43076;-78
2022/09/03 00:05:08;;;;;;;0.63;0.63;;;;;;;16.26;46.43;98654.72;5110510;28;42555;-79
2022/09/03 00:07:46;;;;;;;0.80;0.80;;;;;;;16.27;46.37;98655.56;5110447;28;43253;-79
2022/09/03 00:10:22;;;;;;;0.73;0.60;;;;;;;16.25;46.37;98655.69;5110452;28;40843;-78
2022/09/03 00:12:53;;;;;;;1.17;0.90;;;;;;;16.08;46.42;98635.81;5095872;28;42422;-79
2022/09/03 00:15:24;;;;;;;0.70;0.70;;;;;;;16.21;46.39;98658.75;5111444;28;43053;-78
2022/09/03 00:17:55;;;;;;;0.60;0.60;;;;;;;16.20;46.50;98670.44;5096386;28;41231;-79
2022/09/03 00:20:30;;;;;;;0.70;0.60;;;;;;;16.07;46.67;98650.13;5096222;28;39833;-78
2022/09/03 00:23:03;;;;;;;0.70;0.70;;;;;;;16.14;46.46;98662.00;5095944;28;41655;-78
2022/09/03 00:25:38;;;;;;;0.70;0.70;;;;;;;16.11;46.46;98656.91;5096005;28;43260;-78
2022/09/03 00:28:12;;;;;;;0.83;0.60;;;;;;;16.10;46.87;98654.38;5112769;28;40929;-79
2022/09/03 00:30:43;;;;;;;0.60;0.60;;;;;;;16.06;46.76;98653.81;5110004;28;40060;-80
2022/09/03 00:33:17;;;;;;;0.87;0.80;;;;;;;16.05;47.42;98641.44;5113253;28;42367;-79
2022/09/03 00:35:52;;;;;;;1.20;1.10;;;;;;;16.05;48.83;98635.25;5095920;28;41863;-78
2022/09/03 00:38:22;;;;;;;2.03;0.90;;;;;;;16.05;48.57;98641.44;5112943;28;42345;-79
2022/09/03 00:41:05;;;;;;;1.03;0.80;;;;;;;15.92;48.42;98614.13;5113200;28;38998;-78
2022/09/03 00:43:47;;;;;;;1.00;1.00;;;;;;;16.06;48.27;98645.81;5112938;28;40558;-78
2022/09/03 00:46:23;;;;;;;0.83;0.80;;;;;;;15.90;48.29;98628.59;5096285;28;42630;-78
2022/09/03 00:49:24;;;;;;;0.90;0.87;;;;;;;16.06;48.03;98663.66;5112468;28;43741;-78
2022/09/03 00:52:01;;;;;;;1.37;0.67;;;;;;;16.01;48.22;98649.84;5090827;28;40111;-78
2022/09/03 00:54:40;;;;;;;0.80;0.67;;;;;;;16.02;48.82;98652.38;5112156;28;42092;-78
2022/09/03 00:57:24;;;;;;;1.90;1.50;;;;;;;16.02;48.69;98646.19;5095876;28;41797;-78
2022/09/03 01:00:00;;;;;;;0.97;0.87;;;;;;;16.00;48.71;98651.66;5107251;28;43068;-81
2022/09/03 01:02:37;;;;;;;1.57;0.97;;;;;;;15.88;48.79;98634.06;5106437;28;41605;-78
2022/09/03 01:05:11;;;;;;;0.70;0.70;;;;;;;15.95;48.73;98651.22;5106132;28;41627;-78
2022/09/03 01:07:49;;;;;;;0.97;0.80;;;;;;;15.85;48.49;98636.13;5090204;28;42815;-79
2022/09/03 01:10:31;;;;;;;0.80;0.80;;;;;;;15.89;48.94;98645.59;5071704;27;42638;-79
2022/09/03 01:13:06;;;;;;;0.60;0.60;;;;;;;15.85;48.69;98653.00;5109795;28;40188;-78
2022/09/03 01:15:43;;;;;;;0.80;0.80;;;;;;;15.81;48.85;98646.25;5104773;28;41522;-78
2022/09/03 01:18:20;;;;;;;1.80;1.00;;;;;;;15.73;48.79;98636.22;5074315;28;42917;-79
2022/09/03 01:20:59;;;;;;;0.80;0.80;;;;;;;15.70;48.51;98643.69;5091301;28;41521;-78
2022/09/03 01:23:53;;;;;;;0.87;0.87;;;;;;;15.72;48.61;98649.72;5073802;28;39045;-78
2022/09/03 01:26:52;;;;;;;0.87;0.70;;;;;;;15.70;49.09;98651.69;5074006;28;41056;-78
2022/09/03 01:29:25;;;;;;;0.70;0.70;;;;;;;15.67;48.76;98647.47;5091244;28;43013;-79
2022/09/03 01:32:03;;;;;;;0.60;0.60;;;;;;;15.65;48.84;98646.75;5074983;28;42045;-79
2022/09/03 01:34:45;;;;;;;1.13;1.03;;;;;;;15.50;49.43;98623.16;5075199;28;39120;-78
2022/09/03 01:37:20;;;;;;;0.93;0.73;;;;;;;15.62;49.43;98648.81;5091545;28;42597;-78
2022/09/03 01:40:01;;;;;;;1.10;1.00;;;;;;;15.60;49.35;98640.94;5091581;28;43656;-78
2022/09/03 01:42:45;;;;;;;1.07;0.87;;;;;;;15.58;49.47;98647.41;5074389;28;42436;-78
2022/09/03 01:45:39;;;;;;;2.00;0.90;;;;;;;15.56;49.73;98644.03;5088513;28;40591;-78
2022/09/03 01:48:21;;;;;;;0.80;0.70;;;;;;;15.52;49.50;98647.91;5089378;28;41715;-79
2022/09/03 01:50:58;;;;;;;0.77;0.77;;;;;;;15.51;49.39;98651.53;5089061;28;42789;-78
2022/09/03 01:53:56;;;;;;;0.80;0.70;;;;;;;15.48;49.53;98646.47;5074039;28;42550;-78
2022/09/03 01:56:35;;;;;;;1.00;0.80;;;;;;;15.44;49.92;98649.41;5091578;28;39905;-78
2022/09/03 01:59:09;;;;;;;0.73;0.73;;;;;;;15.43;49.54;98650.38;5090974;28;41505;-78
2022/09/03 02:01:45;;;;;;;1.00;0.90;;;;;;;15.41;49.46;98647.00;5088198;28;43103;-78
2022/09/03 02:04:19;;;;;;;0.80;0.80;;;;;;;15.39;49.78;98648.94;5073922;28;41026;-78
2022/09/03 02:06:47;;;;;;;1.33;0.90;;;;;;;15.37;49.70;98642.03;5074174;28;41541;-78
2022/09/03 02:09:16;;;;;;;1.00;0.90;;;;;;;15.34;49.81;98639.63;5092048;28;42713;-78
2022/09/03 02:11:46;;;;;;;0.70;0.70;;;;;;;15.33;50.02;98649.47;5091180;28;41714;-78
2022/09/03 02:14:14;;;;;;;0.80;0.80;;;;;;;15.30;49.95;98647.06;5090943;28;43137;-78
2022/09/03 02:16:45;;;;;;;0.60;0.60;;;;;;;15.26;50.39;98642.97;5092665;28;40038;-78
2022/09/03 02:19:16;;;;;;;2.00;0.80;;;;;;;15.23;50.31;98637.88;5090659;28;41504;-78
2022/09/03 02:21:48;;;;;;;1.20;0.90;;;;;;;15.21;50.51;98649.66;5087902;28;43587;-78
2022/09/03 02:24:16;;;;;;;0.93;0.60;;;;;;;15.06;50.86;98625.16;5073656;28;42498;-78
2022/09/03 02:26:45;;;;;;;1.00;0.83;;;;;;;15.14;50.66;98645.81;5090980;28;40135;-78
2022/09/03 02:29:14;;;;;;;0.60;0.60;;;;;;;15.08;50.51;98647.22;5090403;28;40772;-78
2022/09/03 02:31:44;;;;;;;1.60;0.80;;;;;;;15.08;50.43;98652.53;5090963;28;43678;-78
2022/09/03 02:34:12;;;;;;;0.90;0.80;;;;;;;15.05;50.74;98652.78;5090033;28;42247;-78
2022/09/03 02:36:44;;;;;;;1.23;0.80;;;;;;;15.01;51.11;98643.34;5090657;28;38962;-79
2022/09/03 02:39:12;;;;;;;1.03;0.83;;;;;;;14.97;51.16;98645.41;5090019;28;40678;-78
2022/09/03 02:41:40;;;;;;;0.80;0.80;;;;;;;14.85;50.93;98621.59;5090666;28;42572;-78
2022/09/03 02:44:13;;;;;;;0.60;0.60;;;;;;;14.87;51.11;98632.97;5091322;28;42315;-78
2022/09/03 02:46:45;;;;;;;0.70;0.70;;;;;;;14.87;51.13;98639.16;5091161;28;41081;-78
2022/09/03 02:49:13;;;;;;;0.60;0.60;;;;;;;14.85;51.83;98645.59;5090136;28;42794;-78
2022/09/03 02:51:43;;;;;;;0.60;0.60;;;;;;;14.82;51.58;98644.06;5073484;28;43532;-78
2022/09/03 02:54:12;;;;;;;1.10;0.90;;;;;;;14.80;51.91;98639.81;5073423;28;41535;-78
2022/09/03 02:56:40;;;;;;;0.77;0.77;;;;;;;14.70;51.63;98629.94;5090894;28;39115;-78
2022/09/03 02:59:10;;;;;;;0.70;0.70;;;;;;;14.74;51.69;98633.16;5091506;28;41493;-78
2022/09/03 03:01:37;;;;;;;0.70;0.70;;;;;;;14.73;51.56;98636.78;5090577;28;43784;-78
2022/09/03 03:04:07;;;;;;;0.80;0.80;;;;;;;14.70;51.65;98629.06;5090437;28;42446;-78
2022/09/03 03:06:35;;;;;;;0.73;0.70;;;;;;;14.70;51.87;98634.41;5091734;28;40073;-78
2022/09/03 03:09:05;;;;;;;1.37;1.00;;;;;;;14.68;52.01;98626.53;5090031;28;42467;-78
2022/09/03 03:11:35;;;;;;;2.00;0.80;;;;;;;14.37;52.32;98584.69;5088588;28;43952;-78
2022/09/03 03:14:03;;;;;;;2.83;0.87;;;;;;;14.59;52.62;98621.94;5075705;28;42416;-78
2022/09/03 03:16:31;;;;;;;2.10;0.97;;;;;;;14.64;52.82;98634.91;5093948;28;40879;-78
2022/09/03 03:18:59;;;;;;;1.03;0.90;;;;;;;14.61;52.98;98633.31;5093432;28;40442;-78
2022/09/03 03:21:28;;;;;;;1.90;0.90;;;;;;;14.60;53.32;98628.97;5077129;28;41619;-78
2022/09/03 03:23:55;;;;;;;0.80;0.80;;;;;;;14.60;53.33;98623.63;5093862;28;42284;-78
2022/09/03 03:26:24;;;;;;;0.80;0.80;;;;;;;14.56;53.73;98614.22;5076976;28;39077;-78
2022/09/03 03:28:59;;;;;;;1.10;1.00;;;;;;;14.61;53.71;98622.66;5094894;28;41747;-78
2022/09/03 03:31:28;;;;;;;1.37;0.90;;;;;;;14.63;53.85;98626.06;5090774;28;42875;-78
2022/09/03 03:33:58;;;;;;;1.93;1.30;;;;;;;14.64;53.86;98629.56;5093099;28;41525;-78
2022/09/03 03:36:30;;;;;;;1.27;0.93;;;;;;;14.64;53.62;98630.41;5093495;28;40847;-78
2022/09/03 03:39:00;;;;;;;1.00;0.90;;;;;;;14.63;53.84;98627.88;5092951;28;41538;-78
2022/09/03 03:41:31;;;;;;;0.73;0.70;;;;;;;14.63;53.78;98633.19;5076837;28;41372;-78
2022/09/03 03:44:01;;;;;;;0.70;0.67;;;;;;;14.54;53.89;98616.16;5092425;28;43122;-78
2022/09/03 03:46:32;;;;;;;0.80;0.80;;;;;;;14.60;54.46;98628.97;5095258;28;39697;-78
2022/09/03 03:49:00;;;;;;;1.67;1.00;;;;;;;14.62;54.36;98628.84;5094895;28;41428;-78
2022/09/03 03:51:29;;;;;;;1.17;1.03;;;;;;;14.62;54.19;98637.69;5076403;28;43217;-78
2022/09/03 03:53:58;;;;;;;0.77;0.77;;;;;;;14.63;54.29;98634.03;5093022;28;42323;-78
2022/09/03 03:56:26;;;;;;;0.90;0.90;;;;;;;14.64;53.66;98633.09;5093343;28;39765;-78
2022/09/03 03:58:54;;;;;;;0.90;0.90;;;;;;;14.66;54.09;98639.13;5093809;28;41824;-78
2022/09/03 04:01:24;;;;;;;1.10;1.00;;;;;;;14.66;53.96;98644.47;5100146;28;42716;-78
2022/09/03 04:03:52;;;;;;;0.90;0.73;;;;;;;14.71;54.69;98641.44;5104653;28;42076;-78
2022/09/03 04:06:20;;;;;;;1.10;1.00;;;;;;;14.72;54.26;98632.44;5084271;28;39104;-79
2022/09/03 04:08:50;;;;;;;1.77;1.00;;;;;;;14.74;54.85;98646.47;5085328;28;41920;-79
2022/09/03 04:11:20;;;;;;;1.13;1.03;;;;;;;14.79;54.44;98643.44;5102353;28;43820;-78
2022/09/03 04:13:49;;;;;;;1.23;1.00;;;;;;;14.83;54.56;98636.91;5101076;28;42102;-78
2022/09/03 04:16:18;;;;;;;1.80;0.87;;;;;;;14.86;55.00;98629.47;5084444;28;38911;-79
2022/09/03 04:18:48;;;;;;;1.87;1.07;;;;;;;14.91;54.85;98631.75;5085057;28;41077;-79
2022/09/03 04:21:18;;;;;;;1.00;0.90;;;;;;;14.96;54.60;98621.56;5102158;28;42820;-79
2022/09/03 04:23:47;;;;;;;1.13;1.03;;;;;;;14.99;54.72;98623.94;5098973;27;42377;-78
2022/09/03 04:26:19;;;;;;;1.10;1.00;;;;;;;15.05;54.29;98628.78;5100733;28;41541;-79
2022/09/03 04:28:47;;;;;;;1.20;1.00;;;;;;;15.12;54.29;98629.94;5102065;28;41883;-78
2022/09/03 04:31:17;;;;;;;1.40;1.03;;;;;;;15.06;54.24;98609.16;5100255;28;41567;-78
2022/09/03 04:33:44;;;;;;;1.33;1.13;;;;;;;15.22;54.87;98630.84;5099664;28;41046;-78
2022/09/03 04:36:15;;;;;;;0.97;0.97;;;;;;;15.27;54.30;98635.81;5100195;28;39304;-78
2022/09/03 04:38:44;;;;;;;1.17;1.07;;;;;;;15.27;54.08;98628.66;5099389;28;42192;-78
2022/09/03 04:41:14;;;;;;;2.33;1.10;;;;;;;15.28;54.53;98614.34;5082982;28;42402;-79
2022/09/03 04:43:44;;;;;;;1.30;1.20;;;;;;;15.34;54.84;98624.47;5085331;28;43277;-79
2022/09/03 04:46:13;;;;;;;1.07;0.97;;;;;;;15.29;54.65;98600.03;5084834;28;38896;-79
2022/09/03 04:48:41;;;;;;;1.17;1.00;;;;;;;15.37;54.81;98623.38;5100677;28;40790;-79
2022/09/03 04:51:13;;;;;;;1.37;1.17;;;;;;;15.39;54.48;98627.59;5082553;28;41905;-78
2022/09/03 04:53:43;;;;;;;1.30;1.20;;;;;;;15.43;54.47;98634.38;5099127;28;42193;-79
2022/09/03 04:56:15;;;;;;;1.20;1.10;;;;;;;15.46;54.29;98639.44;5099569;28;38899;-78
2022/09/03 04:58:45;;;;;;;0.90;0.90;;;;;;;15.51;54.13;98640.88;5100005;28;41803;-79
2022/09/03 05:01:16;;;;;;;1.50;1.40;;;;;;;15.53;54.37;98636.25;5082697;28;41521;-80
2022/09/03 05:03:45;;;;;;;1.10;1.10;;;;;;;15.61;54.13;98642.63;5099558;28;42341;-79
2022/09/03 05:06:13;;;;;;;1.43;0.90;;;;;;;15.66;53.94;98647.59;5083284;28;38838;-79
2022/09/03 05:08:41;;;;;;;1.63;1.10;;;;;;;15.71;54.08;98640.84;5101383;28;41806;-78
2022/09/03 05:11:08;;;;;;;1.17;1.00;;;;;;;15.75;54.08;98646.78;5084390;28;41599;-79
2022/09/03 05:13:37;;;;;;;1.37;1.10;;;;;;;15.74;54.00;98637.06;5091211;28;41133;-79
2022/09/03 05:16:08;;;;;;;1.07;1.00;;;;;;;15.86;53.88;98652.03;5091767;28;39753;-79
2022/09/03 05:18:37;;;;;;;1.47;1.10;;;;;;;15.89;53.65;98657.13;5108826;28;40954;-79
2022/09/03 05:21:06;;;;;;;1.80;1.17;;;;;;;15.93;53.76;98658.53;5091786;28;43457;-79
2022/09/03 05:23:37;;;;;;;3.23;1.40;;;;;;;15.97;53.45;98656.44;5108712;28;43064;-79
2022/09/03 05:26:08;;;;;;;1.10;1.00;;;;;;;15.90;53.28;98636.59;5106880;28;39163;-79
2022/09/03 05:28:37;;;;;;;0.93;0.90;;;;;;;16.04;53.57;98649.59;5108581;28;40797;-79
2022/09/03 05:31:08;;;;;;;1.57;1.40;;;;;;;15.89;53.53;98617.06;5091607;28;41783;-79
2022/09/03 05:33:37;;;;;;;1.23;1.03;;;;;;;16.13;53.64;98654.94;5105221;28;43289;-79
2022/09/03 05:36:07;;;;;;;1.30;1.10;;;;;;;16.21;53.34;98650.75;5087811;28;39251;-78
2022/09/03 05:38:35;;;;;;;2.00;1.00;;;;;;;16.29;53.32;98653.59;5107043;28;40657;-78
2022/09/03 05:41:04;;;;;;;1.00;0.80;;;;;;;16.20;53.47;98630.34;5103166;28;43763;-79
2022/09/03 05:43:33;;;;;;;2.50;1.03;;;;;;;16.40;53.13;98656.16;5108540;28;41383;-79
2022/09/03 05:46:02;;;;;;;1.30;1.20;;;;;;;16.49;52.80;98660.66;5109057;28;38779;-79
2022/09/03 05:48:32;;;;;;;1.10;1.03;;;;;;;16.49;53.05;98656.16;5091779;28;41541;-78
2022/09/03 05:51:00;;;;;;;1.50;0.97;;;;;;;16.46;52.62;98640.41;5088733;28;43885;-79
2022/09/03 05:53:28;;;;;;;1.20;1.10;;;;;;;16.62;52.91;98663.97;5108240;28;42548;-78
2022/09/03 05:55:57;;;;;;;1.20;1.10;;;;;;;16.70;52.75;98664.09;5109669;28;40409;-79
2022/09/03 05:58:25;;;;;;;1.27;1.17;;;;;;;16.76;53.06;98663.56;5108354;28;42319;-79
2022/09/03 06:00:53;;;;;;;1.03;0.93;;;;;;;16.76;52.81;98655.53;5108456;28;41550;-78
2022/09/03 06:03:21;;;;;;;1.20;1.10;;;;;;;16.86;52.76;98664.41;5090946;28;43199;-78
2022/09/03 06:05:54;;;;;;;1.10;1.10;;;;;;;16.96;52.58;98674.25;5108408;28;41356;-79
2022/09/03 06:08:22;;;;;;;2.70;1.60;;;;;;;17.05;52.32;98668.94;5103105;28;41899;-79
2022/09/03 06:10:50;;;;;;;1.30;1.20;;;;;;;17.12;52.35;98658.50;5091227;28;41791;-79
2022/09/03 06:13:17;;;;;;;2.50;1.40;;;;;;;17.17;52.09;98664.28;5090843;28;41180;-79
2022/09/03 06:15:45;;;;;;;1.80;1.20;;;;;;;17.21;51.82;98658.47;5088964;28;38957;-79
2022/09/03 06:18:13;;;;;;;1.30;1.10;;;;;;;17.32;51.83;98660.16;5107749;28;41649;-79
2022/09/03 06:20:41;;;;;;;1.10;1.00;;;;;;;17.44;52.22;98658.16;5090745;28;41816;-80
2022/09/03 06:23:10;;;;;;;2.23;1.20;;;;;;;17.56;51.95;98660.53;5103577;28;41431;-79
2022/09/03 06:25:38;;;;;;;1.53;1.00;;;;;;;17.55;51.86;98647.31;5107529;28;40915;-79
2022/09/03 06:28:07;;;;;;;1.23;1.10;;;;;;;17.90;51.77;98660.06;5107093;28;40397;-79
2022/09/03 06:30:36;;;;;;;1.30;1.20;;;;;;;18.08;51.08;98671.69;5107311;28;42884;-79
2022/09/03 06:33:03;;;;;;;1.93;1.37;;;;;;;18.22;50.46;98676.56;5085450;28;42143;-79
2022/09/03 06:35:31;;;;;;;1.03;1.00;;;;;;;18.47;49.95;98685.75;5090528;28;38998;-79
2022/09/03 06:37:59;;;;;;;1.83;1.00;;;;;;;18.63;49.54;98680.59;5107486;28;41646;-79
2022/09/03 06:40:29;;;;;;;1.17;0.87;;;;;;;18.82;48.97;98678.78;5107160;28;43145;-78
2022/09/03 06:43:02;;;;;;;2.27;1.20;;;;;;;18.93;49.09;98682.06;5105189;28;43506;-78
2022/09/03 06:45:30;;;;;;;1.70;1.00;;;;;;;19.02;49.79;98673.13;5104685;28;39898;-79
2022/09/03 06:47:58;;;;;;;1.33;1.00;;;;;;;19.02;49.05;98675.81;5109494;27;41647;-79
2022/09/03 06:50:25;;;;;;;1.07;0.97;;;;;;;19.06;48.89;98670.09;5091924;28;42055;-79
2022/09/03 06:52:54;;;;;;;1.93;0.90;;;;;;;19.15;48.85;98688.84;5111904;28;42373;-79
2022/09/03 06:55:22;;;;;;;1.83;1.10;;;;;;;19.13;48.90;98665.81;5091066;28;38940;-78
2022/09/03 06:57:55;;;;;;;1.10;1.00;;;;;;;19.28;48.95;98675.03;5110921;28;40416;-80
2022/09/03 07:00:23;;;;;;;2.53;1.17;;;;;;;19.36;48.65;98672.41;5091342;28;43482;-79
2022/09/03 07:02:57;;;;;;;1.27;1.17;;;;;;;19.34;48.81;98659.13;5105453;28;42216;-78
2022/09/03 07:05:27;;;;;;;2.07;1.27;;;;;;;19.51;48.47;98678.94;5105481;28;40916;-79
2022/09/03 07:07:55;;;;;;;1.20;1.10;;;;;;;19.64;47.85;98682.06;5093218;28;40789;-79
2022/09/03 07:10:23;;;;;;;1.00;0.90;;;;;;;19.72;47.77;98674.03;5090913;28;41794;-79
2022/09/03 07:12:55;;;;;;;1.10;0.97;;;;;;;19.82;47.25;98656.97;5110400;28;42299;-78
2022/09/03 07:15:23;;;;;;;1.30;1.17;;;;;;;20.09;47.07;98684.50;5105177;28;40301;-78
2022/09/03 07:17:51;;;;;;;3.20;1.07;;;;;;;20.26;46.79;98680.06;5110314;28;42700;-79
2022/09/03 07:20:19;;;;;;;1.17;1.07;;;;;;;20.52;46.14;98689.94;5109863;28;43728;-80
2022/09/03 07:22:47;;;;;;;1.40;1.20;;;;;;;20.73;45.51;98687.66;5110195;28;41568;-78
2022/09/03 07:25:15;;;;;;;1.40;1.23;;;;;;;20.96;45.49;98698.63;5110269;28;40775;-79
2022/09/03 07:27:42;;;;;;;1.23;1.13;;;;;;;21.25;44.80;98695.50;5108701;28;42683;-79
2022/09/03 07:30:13;;;;;;;1.17;1.10;;;;;;;21.59;43.68;98698.03;5111261;28;42450;-79
2022/09/03 07:32:40;;;;;;;1.03;0.93;;;;;;;21.81;44.08;98692.78;5092694;28;42197;-79
2022/09/03 07:35:08;;;;;;;1.47;1.00;;;;;;;22.24;43.45;98698.78;5090988;28;39209;-79
2022/09/03 07:37:37;;;;;;;2.00;1.17;;;;;;;22.53;42.32;98701.69;5109782;28;41717;-79
2022/09/03 07:40:05;;;;;;;1.43;1.13;;;;;;;22.91;41.60;98713.50;5108654;28;43737;-79
2022/09/03 07:42:34;;;;;;;1.30;1.20;;;;;;;23.26;40.54;98719.38;5091804;28;41260;-79
2022/09/03 07:45:04;;;;;;;1.63;1.10;;;;;;;23.48;40.48;98715.84;5107443;28;40955;-79
2022/09/03 07:47:33;;;;;;;1.53;1.43;;;;;;;23.54;39.38;98725.09;5089873;28;41441;-79
2022/09/03 07:50:01;;;;;;;0.87;0.87;;;;;;;23.54;39.96;98719.69;5109879;28;42980;-79
2022/09/03 07:52:28;;;;;;;1.10;1.00;;;;;;;23.59;40.04;98711.91;5110940;28;42180;-79
2022/09/03 07:54:56;;;;;;;1.73;0.90;;;;;;;23.80;39.45;98694.97;5109987;28;39572;-79
2022/09/03 07:57:24;;;;;;;2.50;1.47;;;;;;;24.54;38.64;98720.22;5088061;28;40732;-80
2022/09/03 07:59:52;;;;;;;1.97;1.30;;;;;;;25.52;37.10;98733.25;5092634;28;43215;-79
2022/09/03 08:02:19;;;;;;;1.73;1.00;;;;;;;26.66;35.18;98749.22;5109894;28;41749;-79
2022/09/03 08:04:48;;;;;;;0.93;0.83;;;;;;;26.74;34.62;98753.63;5110280;28;39927;-79
2022/09/03 08:07:16;;;;;;;1.37;0.90;;;;;;;26.73;34.18;98760.94;5109422;28;40861;-79
2022/09/03 08:09:44;;;;;;;1.60;0.80;;;;;;;27.07;34.01;98729.34;5107600;28;41819;-79
2022/09/03 08:12:11;;;;;;;1.43;1.33;;;;;;;27.48;33.56;98751.81;5109704;28;41468;-80
2022/09/03 08:14:39;;;;;;;3.70;0.90;;;;;;;27.73;32.13;98764.88;5111069;28;39990;-79
2022/09/03 08:17:06;;;;;;;1.43;1.30;;;;;;;27.50;32.41;98754.34;5092979;28;40948;-80
2022/09/03 08:19:34;;;;;;;1.73;1.13;;;;;;;27.06;32.98;98727.69;5092860;28;42981;-81
2022/09/03 08:22:03;;;;;;;1.10;1.00;;;;;;;26.99;33.24;98759.41;5109728;28;42226;-79
2022/09/03 08:24:32;;;;;;;1.43;1.00;;;;;;;26.73;34.02;98755.50;5109869;28;40598;-80
2022/09/03 08:27:00;;;;;;;2.53;1.10;;;;;;;26.47;34.45;98739.06;5092684;28;41799;-79
2022/09/03 08:29:28;;;;;;;1.10;1.00;;;;;;;26.25;34.41;98737.44;5093044;28;43180;-80
2022/09/03 08:31:56;;;;;;;1.03;1.00;;;;;;;26.07;34.76;98718.94;5112534;28;42509;-80
2022/09/03 08:34:23;;;;;;;1.30;0.90;;;;;;;25.95;33.88;98740.38;5114079;28;41866;-79
2022/09/03 08:36:53;;;;;;;3.00;1.10;;;;;;;25.88;34.75;98744.88;5113288;28;41844;-79
2022/09/03 08:39:22;;;;;;;1.43;1.10;;;;;;;25.93;34.99;98738.88;5095503;28;43417;-79
2022/09/03 08:42:09;;;;;;;2.47;1.03;;;;;;;26.18;34.67;98745.53;5113717;28;43143;-79
2022/09/03 08:44:45;;;;;;;0.97;0.70;;;;;;;26.46;34.06;98743.66;5113176;28;38925;-79
2022/09/03 08:47:16;;;;;;;2.00;0.90;;;;;;;27.20;32.71;98756.56;5102577;28;42583;-78
2022/09/03 08:49:48;;;;;;;2.07;1.20;;;;;;;28.10;31.09;98775.16;5084917;28;41528;-80
2022/09/03 08:52:25;;;;;;;3.40;1.10;;;;;;;28.65;30.84;98780.34;5083344;28;41545;-79
2022/09/03 08:55:00;;;;;;;1.40;1.10;;;;;;;28.92;30.22;98785.53;5083236;28;40315;-80
2022/09/03 08:57:32;;;;;;;1.67;1.43;;;;;;;28.88;30.02;98780.72;5096043;28;41635;-79
2022/09/03 09:00:00;;;;;;;0.90;0.90;;;;;;;30.10;28.98;98788.69;5096505;28;42272;-79
2022/09/03 09:02:43;;;;;;;1.43;1.00;;;;;;;31.17;27.95;98786.56;5099009;28;41454;-82
2022/09/03 09:05:16;;;;;;;1.23;1.17;;;;;;;31.46;27.46;98788.50;5098204;28;39684;-80
2022/09/03 09:07:52;;;;;;;1.77;1.30;;;;;;;32.34;26.05;98791.38;5098626;28;40601;-81
2022/09/03 09:10:29;;;;;;;1.27;1.10;;;;;;;32.09;26.61;98787.97;5094960;28;43882;-81
2022/09/03 09:13:07;;;;;;;2.90;1.60;;;;;;;31.46;26.73;98774.81;5102526;28;41903;-80
2022/09/03 09:15:45;;;;;;;1.23;1.10;;;;;;;31.13;27.05;98788.09;5095393;28;38959;-80
2022/09/03 09:18:22;;;;;;;1.93;0.90;;;;;;;30.95;27.54;98791.63;5111233;28;42056;-79
2022/09/03 09:20:53;;;;;;;2.43;1.20;;;;;;;31.05;27.60;98776.34;5109484;28;42721;-80
2022/09/03 09:23:29;;;;;;;2.40;1.10;;;;;;;31.08;27.09;98764.97;5111635;28;42952;-80
2022/09/03 09:26:04;;;;;;;1.20;1.10;;;;;;;31.13;27.64;98777.16;5109658;28;40872;-80
2022/09/03 09:28:36;;;;;;;1.97;1.17;;;;;;;31.13;27.64;98777.16;5095295;28;41663;-79
2022/09/03 09:31:07;;;;;;;1.00;1.00;;;;;;;30.92;27.64;98775.69;5104472;28;43357;-80
2022/09/03 09:33:35;;;;;;;2.23;1.33;;;;;;;30.44;28.17;98770.06;5103837;28;42299;-79
2022/09/03 09:36:07;;;;;;;1.67;1.23;;;;;;;30.32;28.76;98759.88;5084849;28;39064;-80
2022/09/03 09:38:37;;;;;;;1.97;1.10;;;;;;;30.00;28.47;98761.03;5094898;28;40601;-80
2022/09/03 09:41:11;;;;;;;1.20;1.10;;;;;;;30.00;29.21;98759.13;5111868;28;44086;-79
2022/09/03 09:43:39;;;;;;;2.23;1.10;;;;;;;30.36;28.81;98750.19;5111910;28;42330;-80
2022/09/03 09:46:12;;;;;;;1.33;1.20;;;;;;;30.59;28.05;98755.03;5111822;28;39913;-80
2022/09/03 09:48:48;;;;;;;2.13;1.30;;;;;;;31.01;28.10;98747.81;5111335;28;41014;-81
2022/09/03 09:51:21;;;;;;;1.50;1.10;;;;;;;31.08;27.53;98759.47;5109970;28;43798;-79
2022/09/03 09:54:00;;;;;;;1.47;1.10;;;;;;;30.93;27.81;98748.09;5110902;28;42522;-79
2022/09/03 09:56:30;;;;;;;1.47;1.37;;;;;;;30.76;27.95;98740.75;5109954;28;40967;-79
2022/09/03 09:59:06;;;;;;;1.17;1.07;;;;;;;30.67;27.93;98751.13;5094397;28;42118;-79
2022/09/03 10:01:36;;;;;;;1.27;1.17;;;;;;;30.81;27.99;98725.31;5094712;28;43557;-80
2022/09/03 10:04:10;;;;;;;1.53;0.97;;;;;;;31.27;28.19;98734.88;5111342;28;43781;-80
2022/09/03 10:06:56;;;;;;;1.37;1.03;;;;;;;31.61;27.65;98723.19;5111909;28;38861;-81
2022/09/03 10:09:26;;;;;;;1.20;1.10;;;;;;;31.74;27.51;98738.63;5111553;28;41809;-79
2022/09/03 10:12:09;;;;;;;1.67;1.27;;;;;;;31.94;26.54;98751.97;5112549;28;43664;-79
2022/09/03 10:14:44;;;;;;;1.70;1.20;;;;;;;32.02;26.25;98746.16;5111377;28;42704;-79
2022/09/03 10:17:18;;;;;;;1.03;1.00;;;;;;;31.88;26.92;98745.56;5094380;28;40108;-78
2022/09/03 10:22:45;;;;;;;1.53;1.43;;;;;;;31.66;26.55;98728.81;5109913;28;42581;-79
2022/09/03 10:25:15;;;;;;;1.73;1.10;;;;;;;31.76;27.34;98742.78;5094419;28;42334;-80
2022/09/03 10:27:45;;;;;;;2.40;1.30;;;;;;;31.77;27.00;98747.16;5111853;28;40078;-80
2022/09/03 10:30:14;;;;;;;1.53;1.30;;;;;;;31.90;27.09;98739.84;5111458;28;40981;-79
2022/09/03 10:32:50;;;;;;;2.20;1.40;;;;;;;31.92;26.84;98737.69;5112469;28;42770;-81
2022/09/03 10:35:27;;;;;;;1.73;1.40;;;;;;;31.78;27.16;98740.63;5108267;28;42585;-79
2022/09/03 10:38:04;;;;;;;1.77;1.20;;;;;;;31.64;27.42;98725.50;5094245;28;38511;-79
2022/09/03 10:40:38;;;;;;;2.03;1.00;;;;;;;31.63;27.21;98721.06;5112083;28;42107;-81
2022/09/03 10:43:32;;;;;;;1.90;1.27;;;;;;;31.63;27.71;98723.81;5111137;28;41805;-81
2022/09/03 10:46:05;;;;;;;1.10;1.00;;;;;;;31.66;27.27;98723.34;5094431;28;41300;-80
2022/09/03 10:48:46;;;;;;;1.20;1.10;;;;;;;31.98;27.55;98715.66;5094254;28;39327;-79
2022/09/03 10:51:19;;;;;;;1.20;1.10;;;;;;;32.50;26.61;98725.94;5111210;28;40316;-79
2022/09/03 10:54:02;;;;;;;2.10;1.37;;;;;;;33.15;25.81;98729.25;5093665;28;45294;-80
2022/09/03 10:56:38;;;;;;;1.50;1.30;;;;;;;33.98;25.14;98733.28;5109157;28;42306;-80
2022/09/03 10:59:26;;;;;;;1.93;1.50;;;;;;;35.46;24.27;98729.59;5110447;28;39957;-80
2022/09/03 11:02:01;;;;;;;1.67;1.20;;;;;;;35.83;23.49;98720.59;5109246;28;42705;-80
2022/09/03 11:04:38;;;;;;;2.00;1.50;;;;;;;36.25;23.38;98740.78;5093798;28;42886;-82
2022/09/03 11:07:10;;;;;;;2.43;1.70;;;;;;;36.29;22.83;98728.13;5108869;28;42015;-80
2022/09/03 11:09:41;;;;;;;1.30;1.20;;;;;;;35.79;23.28;98725.78;5112320;28;40848;-79
2022/09/03 11:12:16;;;;;;;1.33;1.23;;;;;;;35.19;23.74;98725.94;5110557;28;43126;-80
2022/09/03 11:14:52;;;;;;;1.50;1.20;;;;;;;34.70;24.23;98727.78;5111173;28;41651;-79
2022/09/03 11:17:25;;;;;;;2.07;1.30;;;;;;;34.28;24.43;98722.78;5107525;28;42308;-79
2022/09/03 11:19:58;;;;;;;1.50;1.40;;;;;;;34.21;25.23;98713.88;5109113;28;39906;-80
2022/09/03 11:22:28;;;;;;;2.13;1.20;;;;;;;34.07;25.13;98698.81;5110398;28;41153;-80
2022/09/03 11:25:00;;;;;;;1.53;1.43;;;;;;;33.99;25.53;98685.50;5110628;28;42878;-79
2022/09/03 11:27:45;;;;;;;1.77;1.37;;;;;;;33.69;25.77;98670.13;5110840;28;43158;-80
2022/09/03 11:30:23;;;;;;;1.50;1.40;;;;;;;33.40;25.57;98685.00;5093583;28;41601;-80
2022/09/03 11:32:54;;;;;;;1.47;1.33;;;;;;;33.11;26.02;98674.03;5108268;27;42892;-81
2022/09/03 11:35:28;;;;;;;1.10;1.10;;;;;;;33.08;26.67;98654.47;5096854;28;41828;-83
2022/09/03 11:38:00;;;;;;;1.30;1.20;;;;;;;33.59;26.41;98659.00;5097028;28;42536;-79
2022/09/03 11:40:34;;;;;;;1.67;1.40;;;;;;;35.11;24.83;98652.91;5114952;28;39684;-80
2022/09/03 11:43:14;;;;;;;1.40;1.30;;;;;;;37.23;23.32;98680.28;5111987;28;41768;-80
2022/09/03 11:45:43;;;;;;;1.57;1.43;;;;;;;38.03;21.82;98689.78;5097156;28;43196;-79
2022/09/03 11:48:19;;;;;;;3.37;1.20;;;;;;;37.29;21.81;98673.69;5114898;28;42979;-78
2022/09/03 11:50:54;;;;;;;1.97;1.77;;;;;;;36.41;22.88;98675.53;5115369;28;41074;-79
2022/09/03 11:53:28;;;;;;;2.57;1.33;;;;;;;35.39;23.38;98670.28;5113609;28;42822;-80
2022/09/03 11:56:00;;;;;;;2.70;1.77;;;;;;;34.57;24.47;98663.81;5110951;28;43042;-79
2022/09/03 11:58:31;;;;;;;1.40;1.30;;;;;;;34.03;25.19;98665.47;5113326;28;41308;-77